Time;durP1;ratioP1;P1;durP2;ratioP2;P2;SDS_P1;SDS_P2;PMS_P1;PMS_P2;Temp;Humidity;BMP_temperature;BMP_pressure;BME280_temperature;BME280_humidity;BME280_pressure;Samples;Min_cycle;Max_cycle;Signal;HPM_P1;HPM_P2
2023/09/19 00:00:56;;;;;;;15.27;10.47;;;18.70;99.90;;;;;;4806303;29;20275;-78
2023/09/19 00:03:25;;;;;;;17.70;11.37;;;18.70;99.90;;;;;;4805595;29;20242;-78
2023/09/19 00:05:58;;;;;;;18.83;11.13;;;18.70;99.90;;;;;;4805459;29;20246;-79
2023/09/19 00:08:26;;;;;;;14.77;10.40;;;18.70;99.90;;;;;;4804420;29;20210;-78
2023/09/19 00:11:04;;;;;;;16.57;10.70;;;18.60;99.90;;;;;;4806219;29;20226;-79
2023/09/19 00:13:36;;;;;;;16.80;11.03;;;18.60;99.90;;;;;;4804725;29;20229;-79
2023/09/19 00:16:14;;;;;;;16.30;11.07;;;18.60;99.90;;;;;;4806451;29;20234;-78
2023/09/19 00:18:42;;;;;;;15.53;10.37;;;18.60;99.90;;;;;;4806142;29;20611;-79
2023/09/19 00:21:11;;;;;;;15.73;10.97;;;18.60;99.90;;;;;;4806634;29;20582;-80
2023/09/19 00:23:41;;;;;;;17.47;10.73;;;18.60;99.90;;;;;;4805651;29;20314;-80
2023/09/19 00:26:12;;;;;;;16.67;10.57;;;18.50;99.90;;;;;;4804652;29;20190;-79
2023/09/19 00:28:40;;;;;;;17.63;11.10;;;18.60;99.90;;;;;;4804871;29;20282;-79
2023/09/19 00:31:11;;;;;;;27.53;12.27;;;18.60;99.90;;;;;;4806093;29;20223;-79
2023/09/19 00:33:39;;;;;;;16.27;11.27;;;18.60;99.90;;;;;;4806027;29;20196;-80
2023/09/19 00:36:08;;;;;;;20.67;11.63;;;18.60;99.90;;;;;;4804829;29;20383;-79
2023/09/19 00:38:36;;;;;;;16.13;11.10;;;18.50;99.90;;;;;;4806154;29;20199;-79
2023/09/19 00:41:05;;;;;;;15.20;11.20;;;18.50;99.90;;;;;;4805852;29;20208;-79
2023/09/19 00:43:34;;;;;;;18.77;11.30;;;18.50;99.90;;;;;;4805401;29;20199;-79
2023/09/19 00:46:06;;;;;;;17.83;11.27;;;18.50;99.90;;;;;;4804599;29;20818;-79
2023/09/19 00:48:41;;;;;;;18.37;11.50;;;18.50;99.90;;;;;;4805484;29;20200;-79
2023/09/19 00:51:08;;;;;;;18.93;11.70;;;18.40;99.90;;;;;;4805583;29;20223;-78
2023/09/19 00:53:36;;;;;;;20.77;11.83;;;18.40;99.90;;;;;;4805033;29;20278;-79
2023/09/19 00:56:06;;;;;;;16.70;10.97;;;18.40;99.90;;;;;;4805094;29;20652;-79
2023/09/19 00:58:36;;;;;;;19.70;11.57;;;18.40;99.90;;;;;;4805180;29;20197;-79
2023/09/19 01:01:06;;;;;;;17.57;11.73;;;18.40;99.90;;;;;;4804530;29;20188;-79
2023/09/19 01:03:36;;;;;;;17.50;11.50;;;18.40;99.90;;;;;;4805517;29;20196;-79
2023/09/19 01:06:09;;;;;;;16.63;11.17;;;18.40;99.90;;;;;;4805077;29;20302;-79
2023/09/19 01:08:36;;;;;;;16.93;11.70;;;18.40;99.90;;;;;;4805380;29;20200;-78
2023/09/19 01:11:24;;;;;;;16.67;10.87;;;18.40;99.90;;;;;;4805432;29;20639;-79
2023/09/19 01:14:12;;;;;;;22.47;12.17;;;18.40;99.90;;;;;;4805346;29;20200;-78
2023/09/19 01:16:50;;;;;;;16.53;11.23;;;18.40;99.90;;;;;;4804766;29;20272;-79
2023/09/19 01:19:51;;;;;;;18.50;11.67;;;18.30;99.90;;;;;;4804872;29;20554;-79
2023/09/19 01:22:37;;;;;;;17.30;11.17;;;18.30;99.90;;;;;;4805585;29;20227;-80
2023/09/19 01:25:29;;;;;;;19.87;12.13;;;18.30;99.90;;;;;;4804262;29;20278;-79
2023/09/19 01:28:21;;;;;;;23.73;12.13;;;18.30;99.90;;;;;;4804445;29;20212;-80
2023/09/19 01:30:54;;;;;;;18.03;11.57;;;18.30;99.90;;;;;;4804458;29;20568;-79
2023/09/19 01:33:23;;;;;;;20.67;12.57;;;18.30;99.90;;;;;;4804043;29;20238;-79
2023/09/19 01:35:50;;;;;;;16.20;11.00;;;18.30;99.90;;;;;;4804419;29;20292;-80
2023/09/19 01:38:19;;;;;;;15.10;11.07;;;18.30;99.90;;;;;;4803709;29;20678;-79
2023/09/19 01:41:03;;;;;;;21.07;12.30;;;18.40;99.90;;;;;;4805248;29;20361;-79
2023/09/19 01:43:37;;;;;;;21.87;12.80;;;18.40;99.90;;;;;;4804770;29;20210;-80
2023/09/19 01:46:37;;;;;;;19.30;11.63;;;18.40;99.90;;;;;;4805019;29;20200;-79
2023/09/19 01:49:15;;;;;;;17.87;11.30;;;18.40;99.90;;;;;;4804647;29;20196;-79
2023/09/19 01:52:06;;;;;;;17.17;11.70;;;18.40;99.90;;;;;;4804573;29;20215;-80
2023/09/19 01:54:47;;;;;;;20.23;11.67;;;18.40;99.90;;;;;;4804795;29;20216;-79
2023/09/19 01:57:33;;;;;;;20.67;11.67;;;18.60;99.90;;;;;;4804795;29;20283;-79
2023/09/19 02:00:07;;;;;;;20.57;11.20;;;18.60;99.90;;;;;;4805578;29;20223;-79
2023/09/19 02:02:47;;;;;;;16.63;11.73;;;18.50;99.90;;;;;;4803179;29;20268;-79
2023/09/19 02:05:27;;;;;;;16.73;11.07;;;18.40;99.90;;;;;;4805053;29;20559;-78
2023/09/19 02:07:58;;;;;;;18.63;11.83;;;18.40;99.90;;;;;;4804089;29;20207;-79
2023/09/19 02:10:26;;;;;;;16.33;11.20;;;18.40;99.90;;;;;;4803922;29;20637;-79
2023/09/19 02:12:54;;;;;;;16.00;11.47;;;18.40;99.90;;;;;;4804574;29;20264;-79
2023/09/19 02:15:22;;;;;;;22.77;12.50;;;18.50;99.90;;;;;;4806688;29;20227;-79
2023/09/19 02:17:49;;;;;;;17.60;11.57;;;18.40;99.90;;;;;;4808138;29;20213;-79
2023/09/19 02:20:20;;;;;;;16.93;11.13;;;18.40;99.90;;;;;;4807548;29;20260;-80
2023/09/19 02:22:52;;;;;;;18.20;11.70;;;18.30;99.90;;;;;;4808815;29;20188;-77
2023/09/19 02:25:20;;;;;;;19.00;12.00;;;18.30;99.90;;;;;;4808601;29;20222;-79
2023/09/19 02:27:48;;;;;;;19.90;11.97;;;18.30;99.90;;;;;;4808085;29;20204;-78
2023/09/19 02:30:20;;;;;;;15.93;11.40;;;18.30;99.90;;;;;;4808127;29;20192;-80
2023/09/19 02:32:49;;;;;;;20.13;11.40;;;18.20;99.90;;;;;;4808098;29;20294;-81
2023/09/19 02:35:19;;;;;;;21.33;12.20;;;18.20;99.90;;;;;;4806860;29;20235;-80
2023/09/19 02:37:47;;;;;;;18.07;11.80;;;18.30;99.90;;;;;;4808192;29;20196;-79
2023/09/19 02:40:25;;;;;;;16.17;11.33;;;18.20;99.90;;;;;;4807090;29;20632;-79
2023/09/19 02:42:59;;;;;;;18.43;11.00;;;18.20;99.90;;;;;;4806383;29;20200;-79
2023/09/19 02:45:27;;;;;;;16.93;11.13;;;18.20;99.90;;;;;;4807674;29;20636;-81
2023/09/19 02:47:55;;;;;;;17.53;11.53;;;18.10;99.90;;;;;;4807518;29;20203;-79
2023/09/19 02:50:24;;;;;;;19.60;11.70;;;18.10;99.90;;;;;;4807920;29;20200;-78
2023/09/19 02:52:51;;;;;;;17.20;11.57;;;18.10;99.90;;;;;;4806302;29;20375;-79
2023/09/19 02:55:21;;;;;;;15.63;11.23;;;18.00;99.90;;;;;;4807515;29;20319;-78
2023/09/19 02:57:56;;;;;;;19.77;11.27;;;18.00;99.90;;;;;;4807692;29;20593;-79
2023/09/19 03:00:24;;;;;;;16.30;10.97;;;18.00;99.90;;;;;;4790954;29;20199;-80
2023/09/19 03:03:01;;;;;;;19.27;11.40;;;18.00;99.90;;;;;;4807101;29;20656;-79
2023/09/19 03:05:32;;;;;;;19.93;11.90;;;17.90;99.90;;;;;;4807299;29;20695;-79
2023/09/19 03:08:01;;;;;;;17.33;11.20;;;17.90;99.90;;;;;;4806819;29;20196;-77
2023/09/19 03:10:29;;;;;;;16.17;12.10;;;17.90;99.90;;;;;;4807641;29;20264;-80
2023/09/19 03:13:01;;;;;;;17.23;11.80;;;17.80;99.90;;;;;;4807008;29;20203;-78
2023/09/19 03:15:29;;;;;;;16.73;11.47;;;17.80;99.90;;;;;;4807251;29;20270;-78
2023/09/19 03:17:59;;;;;;;17.20;12.23;;;17.80;99.90;;;;;;4806878;29;20199;-80
2023/09/19 03:20:29;;;;;;;24.63;13.00;;;17.80;99.90;;;;;;4807404;29;20228;-79
2023/09/19 03:22:57;;;;;;;19.57;11.70;;;17.80;99.90;;;;;;4806939;29;20200;-79
2023/09/19 03:25:27;;;;;;;19.43;12.17;;;17.80;99.90;;;;;;4807139;29;20203;-79
2023/09/19 03:27:58;;;;;;;17.53;12.00;;;17.70;99.90;;;;;;4806556;29;20664;-79
2023/09/19 03:30:26;;;;;;;17.93;11.60;;;17.70;99.90;;;;;;4806710;29;20203;-79
2023/09/19 03:32:54;;;;;;;17.50;11.67;;;17.70;99.90;;;;;;4806913;29;20211;-78
2023/09/19 03:35:24;;;;;;;18.03;11.87;;;17.70;99.90;;;;;;4806426;29;20223;-79
2023/09/19 03:37:52;;;;;;;21.33;12.00;;;17.70;99.90;;;;;;4806837;29;20289;-78
2023/09/19 03:40:21;;;;;;;19.13;11.70;;;17.70;99.90;;;;;;4806479;29;20196;-78
2023/09/19 03:42:49;;;;;;;16.80;11.07;;;17.80;99.90;;;;;;4806942;29;20211;-79
2023/09/19 03:45:18;;;;;;;16.97;11.67;;;17.60;99.90;;;;;;4806537;29;20256;-80
2023/09/19 03:47:49;;;;;;;17.97;11.70;;;17.70;99.90;;;;;;4805928;29;20567;-79
2023/09/19 03:50:17;;;;;;;20.07;12.23;;;17.50;99.90;;;;;;4806045;29;20286;-79
2023/09/19 03:52:48;;;;;;;19.53;12.17;;;17.70;99.90;;;;;;4805595;29;20216;-79
2023/09/19 03:55:20;;;;;;;17.53;11.93;;;17.60;99.90;;;;;;4790184;29;20306;-79
2023/09/19 03:57:50;;;;;;;16.97;11.47;;;17.60;99.90;;;;;;4807114;29;20303;-78
2023/09/19 04:00:20;;;;;;;17.73;11.90;;;17.60;99.90;;;;;;4806331;29;20278;-79
2023/09/19 04:02:49;;;;;;;17.10;11.67;;;17.70;99.90;;;;;;4805570;29;20202;-79
2023/09/19 04:05:20;;;;;;;35.27;13.20;;;17.90;99.90;;;;;;4804913;29;20200;-80
2023/09/19 04:07:49;;;;;;;22.63;12.83;;;17.70;99.90;;;;;;4790386;29;20568;-79
2023/09/19 04:10:17;;;;;;;16.47;12.00;;;17.70;99.90;;;;;;4806142;29;20207;-79
2023/09/19 04:12:54;;;;;;;16.90;11.37;;;17.50;99.90;;;;;;4806181;29;20314;-80
2023/09/19 04:15:25;;;;;;;19.37;12.10;;;17.60;99.90;;;;;;4805412;29;20287;-79
2023/09/19 04:17:52;;;;;;;19.03;12.60;;;17.60;99.90;;;;;;4806305;29;20210;-77
2023/09/19 04:20:23;;;;;;;17.77;11.73;;;17.60;99.90;;;;;;4805763;29;20200;-78
2023/09/19 04:22:52;;;;;;;19.10;11.77;;;17.60;99.90;;;;;;4806090;29;20234;-79
2023/09/19 04:25:21;;;;;;;18.87;11.67;;;17.60;99.90;;;;;;4805220;29;20196;-79
2023/09/19 04:27:51;;;;;;;17.67;12.10;;;17.60;99.90;;;;;;4805303;29;20227;-79
2023/09/19 04:30:21;;;;;;;22.17;12.37;;;17.80;99.90;;;;;;4805618;29;20630;-78
2023/09/19 04:32:50;;;;;;;17.27;11.83;;;17.70;99.90;;;;;;4804090;29;20229;-77
2023/09/19 04:35:19;;;;;;;16.83;11.60;;;17.70;99.90;;;;;;4804835;29;20238;-78
2023/09/19 04:37:48;;;;;;;18.00;10.77;;;17.70;99.90;;;;;;4804338;29;20203;-78
2023/09/19 04:40:17;;;;;;;17.27;11.90;;;17.70;99.90;;;;;;4805435;29;20295;-79
2023/09/19 04:42:55;;;;;;;16.27;11.40;;;17.70;99.90;;;;;;4805509;29;20500;-78
2023/09/19 04:45:29;;;;;;;23.53;12.40;;;17.60;99.90;;;;;;4788851;29;20262;-78
2023/09/19 04:47:56;;;;;;;16.80;11.20;;;17.70;99.90;;;;;;4789215;29;20203;-79
2023/09/19 04:50:27;;;;;;;23.73;12.37;;;17.70;99.90;;;;;;4805161;29;20237;-79
2023/09/19 04:52:55;;;;;;;19.37;11.77;;;17.80;99.90;;;;;;4804711;29;20191;-79
2023/09/19 04:55:26;;;;;;;18.50;11.77;;;17.80;99.90;;;;;;4804973;29;20231;-77
2023/09/19 04:57:55;;;;;;;19.27;11.27;;;17.80;99.90;;;;;;4805101;29;20196;-77
2023/09/19 05:00:27;;;;;;;17.03;11.10;;;17.90;99.90;;;;;;4805246;29;20295;-78
2023/09/19 05:02:58;;;;;;;19.63;11.57;;;17.90;99.90;;;;;;4804591;29;20219;-77
2023/09/19 05:05:31;;;;;;;18.57;11.70;;;18.00;99.90;;;;;;4804055;29;20276;-80
2023/09/19 05:07:59;;;;;;;17.97;10.37;;;18.00;99.90;;;;;;4804102;29;20200;-79
2023/09/19 05:10:43;;;;;;;18.03;11.37;;;18.00;99.90;;;;;;4804686;29;20211;-76
2023/09/19 05:13:20;;;;;;;18.90;10.47;;;18.10;99.90;;;;;;4802402;29;20211;-77
2023/09/19 05:15:52;;;;;;;18.90;11.27;;;18.10;99.90;;;;;;4804281;29;20215;-79
2023/09/19 05:18:23;;;;;;;23.20;11.53;;;18.00;99.90;;;;;;4803127;29;20335;-78
2023/09/19 05:20:55;;;;;;;15.93;10.80;;;18.10;99.90;;;;;;4805287;29;20307;-78
2023/09/19 05:23:28;;;;;;;15.93;10.73;;;18.10;99.90;;;;;;4803677;29;20204;-78
2023/09/19 05:26:01;;;;;;;19.27;11.23;;;18.40;99.90;;;;;;4804376;29;20211;-77
2023/09/19 05:28:34;;;;;;;20.33;11.50;;;18.30;99.90;;;;;;4804233;29;20288;-77
2023/09/19 05:31:11;;;;;;;16.30;10.60;;;18.20;99.90;;;;;;4804033;29;20227;-79
2023/09/19 05:33:39;;;;;;;15.57;10.60;;;18.30;99.90;;;;;;4803407;29;20649;-77
2023/09/19 05:36:11;;;;;;;14.63;9.83;;;18.30;99.90;;;;;;4803709;29;20231;-78
2023/09/19 05:38:48;;;;;;;16.83;10.63;;;18.30;99.90;;;;;;4803902;29;20204;-77
2023/09/19 05:41:19;;;;;;;24.83;11.60;;;18.40;99.90;;;;;;4803452;29;20203;-76
2023/09/19 05:43:54;;;;;;;15.70;10.63;;;18.40;99.90;;;;;;4803302;29;20259;-76
2023/09/19 05:46:22;;;;;;;15.20;10.13;;;18.40;99.90;;;;;;4804104;29;20200;-77
2023/09/19 05:48:58;;;;;;;18.80;10.70;;;18.40;99.90;;;;;;4803747;29;20207;-73
2023/09/19 05:51:28;;;;;;;16.17;10.57;;;18.50;99.90;;;;;;4803975;29;20247;-78
2023/09/19 05:53:58;;;;;;;19.77;11.17;;;18.50;99.90;;;;;;4803631;29;20195;-78
2023/09/19 05:56:27;;;;;;;14.20;10.13;;;18.60;99.90;;;;;;4803874;29;20239;-77
2023/09/19 05:58:59;;;;;;;15.90;10.17;;;18.70;99.90;;;;;;4804253;29;20546;-74
2023/09/19 06:01:28;;;;;;;16.07;10.23;;;18.70;99.90;;;;;;4804672;29;20279;-77
2023/09/19 06:03:56;;;;;;;15.20;9.93;;;18.70;99.90;;;;;;4803056;29;20210;-75
2023/09/19 06:06:24;;;;;;;21.90;10.53;;;18.70;99.90;;;;;;4803889;29;20227;-77
2023/09/19 06:08:57;;;;;;;15.80;9.73;;;18.80;99.90;;;;;;4803253;29;20558;-76
2023/09/19 06:11:34;;;;;;;17.97;9.90;;;19.00;99.90;;;;;;4803784;29;20586;-78
2023/09/19 06:14:03;;;;;;;14.83;9.90;;;19.00;99.90;;;;;;4804675;29;20237;-77
2023/09/19 06:16:34;;;;;;;16.90;9.90;;;19.20;99.90;;;;;;4802902;29;20219;-75
2023/09/19 06:19:03;;;;;;;16.30;9.93;;;19.20;99.90;;;;;;4803188;29;20286;-73
2023/09/19 06:21:32;;;;;;;15.03;9.60;;;19.20;99.90;;;;;;4801631;29;20231;-79
2023/09/19 06:24:03;;;;;;;14.37;10.07;;;19.20;99.90;;;;;;4802133;29;20520;-76
2023/09/19 06:26:33;;;;;;;13.83;8.97;;;19.20;99.90;;;;;;4802555;29;20196;-76
2023/09/19 06:29:07;;;;;;;20.27;10.40;;;19.30;99.90;;;;;;4803389;29;20349;-76
2023/09/19 06:31:39;;;;;;;15.63;9.67;;;19.20;99.90;;;;;;4802809;29;20686;-76
2023/09/19 06:34:07;;;;;;;14.30;9.70;;;19.30;99.90;;;;;;4803671;29;20207;-75
2023/09/19 06:36:43;;;;;;;14.47;9.97;;;19.30;99.90;;;;;;4802812;29;20238;-78
2023/09/19 06:39:10;;;;;;;14.47;9.37;;;19.30;99.90;;;;;;4802976;29;20663;-76
2023/09/19 06:41:41;;;;;;;14.33;9.50;;;19.50;99.90;;;;;;4803594;29;20233;-76
2023/09/19 06:44:10;;;;;;;17.83;9.87;;;19.60;99.90;;;;;;4803855;29;20734;-73
2023/09/19 06:46:40;;;;;;;15.37;10.23;;;19.70;99.90;;;;;;4802350;29;20562;-76
2023/09/19 06:49:13;;;;;;;18.17;9.87;;;19.50;99.90;;;;;;4802739;29;20195;-76
2023/09/19 06:51:46;;;;;;;16.67;10.70;;;19.60;99.90;;;;;;4803384;29;20239;-77
2023/09/19 06:54:17;;;;;;;17.90;10.43;;;19.60;99.90;;;;;;4802730;29;20299;-76
2023/09/19 06:56:45;;;;;;;15.63;10.23;;;19.60;99.90;;;;;;4802986;29;20318;-78
2023/09/19 06:59:14;;;;;;;15.97;9.90;;;19.70;99.90;;;;;;4803249;29;20663;-75
2023/09/19 07:01:44;;;;;;;18.93;10.17;;;19.80;99.90;;;;;;4806031;29;20663;-73
2023/09/19 07:04:12;;;;;;;17.47;10.23;;;20.00;99.90;;;;;;4806234;29;20207;-77
2023/09/19 07:06:40;;;;;;;18.73;9.63;;;20.00;99.90;;;;;;4806276;29;20223;-76
2023/09/19 07:09:09;;;;;;;15.17;10.10;;;20.20;99.90;;;;;;4807304;29;20257;-73
2023/09/19 07:11:37;;;;;;;15.70;9.80;;;20.30;99.90;;;;;;4806852;29;20203;-74
2023/09/19 07:14:05;;;;;;;13.00;9.53;;;20.30;99.90;;;;;;4806651;29;20256;-73
2023/09/19 07:16:33;;;;;;;21.63;10.40;;;20.40;99.90;;;;;;4805112;29;20280;-74
2023/09/19 07:19:01;;;;;;;16.30;9.27;;;20.50;99.90;;;;;;4805659;29;20206;-76
2023/09/19 07:21:29;;;;;;;17.10;10.17;;;20.70;99.90;;;;;;4807236;29;20220;-76
2023/09/19 07:23:57;;;;;;;13.10;9.60;;;20.80;99.90;;;;;;4806397;29;20328;-75
2023/09/19 07:26:25;;;;;;;14.80;9.70;;;20.70;99.90;;;;;;4806273;29;20278;-74
2023/09/19 07:29:03;;;;;;;19.17;10.40;;;20.80;99.90;;;;;;4806014;29;20279;-78
2023/09/19 07:31:34;;;;;;;16.10;9.70;;;20.80;99.90;;;;;;4791157;29;20199;-78
2023/09/19 07:34:04;;;;;;;14.83;9.87;;;21.00;99.90;;;;;;4804031;29;20297;-77
2023/09/19 07:36:37;;;;;;;15.33;10.23;;;20.90;99.90;;;;;;4805490;29;20288;-77
2023/09/19 07:39:08;;;;;;;21.63;11.53;;;20.90;99.90;;;;;;4789765;29;20288;-76
2023/09/19 07:41:54;;;;;;;14.73;10.63;;;20.90;99.90;;;;;;4805283;29;20578;-78
2023/09/19 07:44:27;;;;;;;17.43;10.77;;;20.80;99.90;;;;;;4804885;29;20259;-72
2023/09/19 07:46:54;;;;;;;18.47;10.37;;;21.00;99.90;;;;;;4805072;29;20231;-75
2023/09/19 07:49:22;;;;;;;19.03;11.10;;;21.20;99.90;;;;;;4805779;29;20294;-74
2023/09/19 07:51:52;;;;;;;16.77;10.97;;;21.20;99.90;;;;;;4805632;29;20331;-77
2023/09/19 07:54:21;;;;;;;17.33;10.93;;;21.30;99.90;;;;;;4804209;29;20203;-74
2023/09/19 07:56:49;;;;;;;16.30;10.13;;;21.50;99.90;;;;;;4805173;29;20299;-76
2023/09/19 07:59:17;;;;;;;15.33;10.17;;;21.50;99.90;;;;;;4805222;29;20204;-75
2023/09/19 08:01:44;;;;;;;20.93;11.53;;;21.60;99.90;;;;;;4805703;29;20283;-73
2023/09/19 08:04:12;;;;;;;17.30;10.93;;;21.50;99.90;;;;;;4804726;29;20230;-75
2023/09/19 08:06:40;;;;;;;17.13;10.93;;;21.70;99.90;;;;;;4804533;29;20238;-73
2023/09/19 08:09:12;;;;;;;23.37;11.53;;;21.70;99.90;;;;;;4805331;29;20214;-74
2023/09/19 08:11:40;;;;;;;16.77;11.00;;;21.70;99.90;;;;;;4788848;29;20249;-75
2023/09/19 08:14:08;;;;;;;15.03;10.97;;;21.80;99.90;;;;;;4804936;29;20196;-75
2023/09/19 08:16:35;;;;;;;20.17;12.30;;;22.00;99.90;;;;;;4804553;29;20239;-75
2023/09/19 08:19:03;;;;;;;19.50;12.33;;;22.10;99.90;;;;;;4805084;29;20211;-75
2023/09/19 08:21:30;;;;;;;19.20;13.13;;;22.20;99.90;;;;;;4804623;29;20215;-72
2023/09/19 08:23:58;;;;;;;20.10;12.90;;;22.30;99.90;;;;;;4804608;29;20230;-73
2023/09/19 08:26:31;;;;;;;20.57;12.53;;;22.40;99.90;;;;;;4804612;29;20612;-77
2023/09/19 08:29:02;;;;;;;20.13;13.70;;;22.60;99.90;;;;;;4804755;29;20219;-76
2023/09/19 08:31:37;;;;;;;18.40;13.37;;;22.60;99.90;;;;;;4805034;29;20192;-76
2023/09/19 08:34:08;;;;;;;35.70;15.55;;;22.70;99.90;;;;;;4804453;29;20199;-75
2023/09/19 08:36:37;;;;;;;18.50;13.07;;;22.80;99.90;;;;;;4804883;29;20310;-73
2023/09/19 08:39:05;;;;;;;20.30;13.93;;;22.50;99.90;;;;;;4805228;29;20203;-76
2023/09/19 08:41:33;;;;;;;20.50;13.40;;;22.40;99.90;;;;;;4788656;29;20206;-74
2023/09/19 08:44:03;;;;;;;21.70;13.33;;;22.40;99.90;;;;;;4803333;29;20258;-76
2023/09/19 08:46:35;;;;;;;18.13;13.10;;;22.40;99.90;;;;;;4804031;29;20196;-79
2023/09/19 08:49:22;;;;;;;21.40;12.63;;;22.40;99.90;;;;;;4804145;29;20286;-73
2023/09/19 08:52:02;;;;;;;20.43;13.50;;;22.30;99.90;;;;;;4804481;29;20227;-77
2023/09/19 08:54:38;;;;;;;18.80;12.20;;;22.10;99.90;;;;;;4804774;29;20200;-78
2023/09/19 08:57:11;;;;;;;18.40;12.57;;;22.00;99.90;;;;;;4805514;29;20323;-74
2023/09/19 08:59:41;;;;;;;21.33;12.83;;;22.10;99.90;;;;;;4804766;29;20584;-76
2023/09/19 09:02:33;;;;;;;20.13;12.77;;;21.90;99.90;;;;;;4803654;29;20203;-74
2023/09/19 09:05:10;;;;;;;16.87;11.57;;;21.80;99.90;;;;;;4804553;29;20203;-77
2023/09/19 09:07:42;;;;;;;18.47;12.00;;;21.90;99.90;;;;;;4803417;29;20773;-79
2023/09/19 09:10:14;;;;;;;17.77;11.50;;;21.90;99.90;;;;;;4805208;29;20243;-79
2023/09/19 09:12:43;;;;;;;16.03;11.20;;;21.80;99.90;;;;;;4802416;29;20687;-78
2023/09/19 09:15:19;;;;;;;15.97;9.93;;;21.90;99.90;;;;;;4803726;29;20267;-76
2023/09/19 09:17:58;;;;;;;13.90;9.23;;;21.60;99.90;;;;;;4804684;29;20219;-75
2023/09/19 09:20:35;;;;;;;16.97;9.37;;;21.60;99.90;;;;;;4803077;29;20200;-78
2023/09/19 09:23:09;;;;;;;14.50;9.10;;;21.40;99.90;;;;;;4803702;29;20214;-77
2023/09/19 09:25:56;;;;;;;11.87;7.73;;;21.20;99.90;;;;;;4804190;29;20199;-76
2023/09/19 09:28:33;;;;;;;13.27;8.33;;;21.10;99.90;;;;;;4803893;29;20224;-76
2023/09/19 09:31:10;;;;;;;11.50;7.43;;;21.00;99.90;;;;;;4803770;29;20196;-75
2023/09/19 09:33:48;;;;;;;11.67;7.40;;;21.00;99.90;;;;;;4803521;29;20345;-78
2023/09/19 09:36:33;;;;;;;13.10;7.57;;;20.90;99.90;;;;;;4788701;29;20234;-73
2023/09/19 09:39:15;;;;;;;14.60;7.67;;;20.90;99.90;;;;;;4802135;29;20214;-74
2023/09/19 09:41:46;;;;;;;13.07;7.40;;;20.90;99.90;;;;;;4802497;29;20615;-78
2023/09/19 09:44:27;;;;;;;14.40;8.10;;;20.60;99.90;;;;;;4788572;29;20240;-76
2023/09/19 09:49:54;;;;;;;12.17;7.93;;;20.40;99.90;;;;;;4747559;30;20217;-77
2023/09/19 09:52:28;;;;;;;12.53;7.97;;;20.30;99.90;;;;;;4748273;30;20268;-78
2023/09/19 09:55:07;;;;;;;16.33;8.20;;;20.20;99.90;;;;;;4747546;30;20675;-77
2023/09/19 09:57:35;;;;;;;11.93;8.53;;;20.20;99.90;;;;;;4748557;30;20217;-79
2023/09/19 10:02:48;;;;;;;15.93;8.90;;;20.20;99.90;;;;;;4747970;30;20243;-83
2023/09/19 10:08:08;;;;;;;18.10;9.47;;;19.80;99.90;;;;;;4748156;30;20720;-76
2023/09/19 10:10:53;;;;;;;13.33;8.20;;;19.60;99.90;;;;;;4748810;30;20283;-79
2023/09/19 10:13:25;;;;;;;13.70;9.40;;;19.30;99.90;;;;;;4748688;30;20229;-77
2023/09/19 10:15:55;;;;;;;13.90;9.07;;;19.20;99.90;;;;;;4748331;30;20209;-76
2023/09/19 10:18:24;;;;;;;15.37;9.90;;;19.10;99.90;;;;;;4748353;30;20217;-77
2023/09/19 10:20:53;;;;;;;17.83;10.53;;;18.90;99.90;;;;;;4747749;30;20741;-79
2023/09/19 10:23:25;;;;;;;16.87;10.70;;;18.70;99.90;;;;;;4748148;30;20259;-78
2023/09/19 10:26:06;;;;;;;19.17;12.00;;;18.80;99.90;;;;;;4740689;29;20639;-78
2023/09/19 10:28:35;;;;;;;21.97;12.80;;;18.70;99.90;;;;;;4802651;29;20203;-78
2023/09/19 10:31:09;;;;;;;20.33;12.77;;;18.80;99.90;;;;;;4803765;29;20682;-77
2023/09/19 10:33:37;;;;;;;22.33;13.40;;;18.80;99.90;;;;;;4802406;29;20342;-78
2023/09/19 10:36:05;;;;;;;21.70;12.60;;;18.90;99.90;;;;;;4806414;29;20218;-76
2023/09/19 10:38:35;;;;;;;20.50;12.67;;;18.90;99.90;;;;;;4807438;29;20260;-76
2023/09/19 10:41:05;;;;;;;20.60;12.60;;;18.90;99.90;;;;;;4805523;29;20187;-77
2023/09/19 10:43:35;;;;;;;21.60;13.10;;;18.80;99.90;;;;;;4807593;29;20226;-79
2023/09/19 10:46:07;;;;;;;21.10;12.93;;;18.80;99.90;;;;;;4805335;29;20256;-79
2023/09/19 10:48:38;;;;;;;23.93;14.03;;;18.90;99.90;;;;;;4805647;29;20207;-77
2023/09/19 10:51:23;;;;;;;19.10;13.20;;;18.80;99.90;;;;;;4805013;29;20316;-77
2023/09/19 10:54:13;;;;;;;34.70;14.80;;;18.80;99.90;;;;;;4806969;29;20219;-80
2023/09/19 10:56:51;;;;;;;19.07;13.03;;;18.90;99.90;;;;;;4807634;29;20273;-79
2023/09/19 10:59:24;;;;;;;22.27;13.03;;;19.00;99.90;;;;;;4805762;29;20203;-82
2023/09/19 11:01:56;;;;;;;18.47;12.03;;;19.00;99.90;;;;;;4790980;29;20276;-79
2023/09/19 11:04:35;;;;;;;18.17;12.17;;;19.30;99.90;;;;;;4807880;29;20196;-80
2023/09/19 11:07:15;;;;;;;21.80;12.93;;;18.90;99.90;;;;;;4807257;29;20224;-81
2023/09/19 11:09:53;;;;;;;28.23;13.43;;;18.80;99.90;;;;;;4807271;29;20284;-81
2023/09/19 11:12:45;;;;;;;18.53;12.83;;;19.00;99.90;;;;;;4807390;29;20202;-81
2023/09/19 11:15:51;;;;;;;19.03;12.03;;;19.10;99.90;;;;;;4806219;29;20668;-79
2023/09/19 11:18:42;;;;;;;25.13;14.70;;;19.30;99.90;;;;;;4806528;29;20288;-78
2023/09/19 11:21:31;;;;;;;22.03;12.03;;;19.40;99.90;;;;;;4807097;29;20220;-77
2023/09/19 11:24:24;;;;;;;20.70;12.03;;;19.40;99.90;;;;;;4805207;29;20210;-79
2023/09/19 11:27:13;;;;;;;16.93;10.87;;;19.50;99.90;;;;;;4806808;29;20211;-78
2023/09/19 11:29:44;;;;;;;20.70;11.33;;;19.40;99.90;;;;;;4807007;29;20193;-79
2023/09/19 11:32:17;;;;;;;21.33;10.60;;;19.40;99.90;;;;;;4807096;29;20656;-78
2023/09/19 11:34:49;;;;;;;17.83;10.33;;;19.40;99.90;;;;;;4805471;29;20192;-80
2023/09/19 11:37:16;;;;;;;19.67;11.23;;;19.40;99.90;;;;;;4790892;29;20242;-79
2023/09/19 11:40:09;;;;;;;13.47;8.93;;;19.70;99.90;;;;;;4806826;29;20260;-79
2023/09/19 11:42:49;;;;;;;13.83;9.27;;;19.70;99.90;;;;;;4805895;29;20290;-77
2023/09/19 11:45:56;;;;;;;14.03;8.47;;;19.60;99.90;;;;;;4805043;29;20606;-80
2023/09/19 11:48:27;;;;;;;14.33;8.23;;;19.70;99.90;;;;;;4804483;29;20203;-79
2023/09/19 11:50:59;;;;;;;9.93;8.30;;;19.40;99.90;;;;;;4806299;29;20724;-80
2023/09/19 11:53:36;;;;;;;11.10;8.37;;;19.40;99.90;;;;;;4805249;29;20211;-79
2023/09/19 11:56:10;;;;;;;16.87;9.10;;;19.40;99.90;;;;;;4806221;29;20265;-81
2023/09/19 11:58:53;;;;;;;18.77;9.20;;;19.30;99.90;;;;;;4797979;29;20227;-82
2023/09/19 14:20:54;;;;;;;14.03;9.40;;;20.10;99.90;;;;;;5553105;24;20247;-81
2023/09/19 15:03:37;;;;;;;8.40;7.00;;;20.00;99.90;;;;;;5819534;24;20262;31
2023/09/19 15:35:14;;;;;;;;;;;;;;;;;;;;;
2023/09/19 15:47:34;;;;;;;8.73;6.80;;;20.20;99.90;;;;;;4545845;31;20296;-85
2023/09/19 15:50:26;;;;;;;17.63;7.70;;;20.10;99.90;;;;;;4549659;31;20284;-84
2023/09/19 15:54:04;;;;;;;10.80;6.63;;;20.10;99.90;;;;;;5107611;27;20533;-81
2023/09/19 16:01:48;;;;;;;6.97;6.23;;;20.10;99.90;;;;;;4853706;29;20832;-83
